createdAt,value
2018-03-18T00:00:44.672Z,20.43
2018-03-18T00:03:12.950Z,38.43
2018-03-18T00:05:41.625Z,23.47
2018-03-18T00:08:10.059Z,34.93
2018-03-18T00:10:38.501Z,24.97
2018-03-18T00:13:06.769Z,34.17
2018-03-18T00:15:35.278Z,60.90
2018-03-18T00:18:03.630Z,25.90
2018-03-18T00:20:31.990Z,40.10
2018-03-18T00:23:00.382Z,42.33
2018-03-18T00:25:28.762Z,34.53
2018-03-18T00:27:58.053Z,32.27
2018-03-18T00:30:26.442Z,30.13
2018-03-18T00:32:54.613Z,30.03
2018-03-18T00:35:23.089Z,34.43
2018-03-18T00:37:51.473Z,42.93
2018-03-18T00:40:19.761Z,48.00
2018-03-18T00:42:48.176Z,33.40
2018-03-18T00:45:16.408Z,36.80
2018-03-18T00:47:45.393Z,40.87
2018-03-18T00:50:13.753Z,37.13
2018-03-18T00:52:42.401Z,33.37
2018-03-18T00:55:10.630Z,31.83
2018-03-18T00:57:38.806Z,39.63
2018-03-18T01:00:07.282Z,36.40
2018-03-18T01:02:35.703Z,28.27
2018-03-18T01:05:04.038Z,33.60
2018-03-18T01:07:32.418Z,28.60
2018-03-18T01:10:00.788Z,40.60
2018-03-18T01:12:29.174Z,51.37
2018-03-18T01:14:57.249Z,40.87
2018-03-18T01:17:25.620Z,25.47
2018-03-18T01:19:53.892Z,34.33
2018-03-18T01:22:22.175Z,35.67
2018-03-18T01:24:50.951Z,28.70
2018-03-18T01:27:19.023Z,19.40
2018-03-18T01:29:47.202Z,27.33
2018-03-18T01:32:15.793Z,14.83
2018-03-18T01:34:44.265Z,23.50
2018-03-18T01:37:12.711Z,29.77
2018-03-18T01:39:41.017Z,31.87
2018-03-18T01:42:09.607Z,30.33
2018-03-18T01:44:37.993Z,31.90
2018-03-18T01:47:06.262Z,22.13
2018-03-18T01:49:34.738Z,21.53
2018-03-18T01:52:03.215Z,22.40
2018-03-18T01:54:31.700Z,27.23
2018-03-18T01:57:00.061Z,23.60
2018-03-18T01:59:28.254Z,23.07
2018-03-18T02:01:56.735Z,27.77
2018-03-18T02:04:25.212Z,34.83
2018-03-18T02:06:53.684Z,26.57
2018-03-18T02:09:22.175Z,22.37
2018-03-18T02:11:50.566Z,18.03
2018-03-18T02:14:18.956Z,31.70
2018-03-18T02:16:47.189Z,13.03
2018-03-18T02:19:15.784Z,21.20
2018-03-18T02:21:44.157Z,20.93
2018-03-18T02:24:12.649Z,21.20
2018-03-18T02:26:41.130Z,19.00
2018-03-18T02:29:09.284Z,36.30
2018-03-18T02:31:37.676Z,20.37
2018-03-18T02:34:06.040Z,21.17
2018-03-18T02:36:34.533Z,18.43
2018-03-18T02:39:03.018Z,15.90
2018-03-18T02:41:31.143Z,20.50
2018-03-18T02:43:59.669Z,14.20
2018-03-18T02:46:28.046Z,17.93
2018-03-18T02:48:56.257Z,11.53
2018-03-18T02:51:24.789Z,7.20
2018-03-18T02:53:53.286Z,24.50
2018-03-18T02:56:21.463Z,15.27
2018-03-18T02:58:49.845Z,19.93
2018-03-18T03:01:18.294Z,26.73
2018-03-18T03:03:46.794Z,12.53
2018-03-18T03:06:14.931Z,11.57
2018-03-18T03:08:43.548Z,9.80
2018-03-18T03:11:11.826Z,17.43
2018-03-18T03:13:40.404Z,17.73
2018-03-18T03:16:09.094Z,9.03
2018-03-18T03:18:37.255Z,20.10
2018-03-18T03:21:05.893Z,17.20
2018-03-18T03:23:34.233Z,16.23
2018-03-18T03:26:02.408Z,44.53
2018-03-18T03:28:30.577Z,15.13
2018-03-18T03:30:59.067Z,18.67
2018-03-18T03:33:27.334Z,15.77
2018-03-18T03:35:55.796Z,15.93
2018-03-18T03:38:24.094Z,22.63
2018-03-18T03:40:52.564Z,20.57
2018-03-18T03:43:20.949Z,18.13
2018-03-18T03:45:49.118Z,44.87
2018-03-18T03:48:17.598Z,20.37
2018-03-18T03:50:45.773Z,30.10
2018-03-18T03:53:14.353Z,41.27
2018-03-18T03:55:42.535Z,33.10
2018-03-18T03:58:10.995Z,28.63
2018-03-18T04:00:39.190Z,24.77
2018-03-18T04:03:07.357Z,30.17
2018-03-18T04:05:35.836Z,27.20
2018-03-18T04:08:04.420Z,26.27
2018-03-18T04:10:32.697Z,32.20
2018-03-18T04:13:01.381Z,49.47
2018-03-18T04:15:29.757Z,19.30
2018-03-18T04:17:58.063Z,27.53
2018-03-18T04:20:25.987Z,15.33
2018-03-18T04:22:54.495Z,20.13
2018-03-18T04:25:22.965Z,33.67
2018-03-18T04:27:51.379Z,26.17
2018-03-18T04:30:19.823Z,15.77
2018-03-18T04:32:48.405Z,40.73
2018-03-18T04:35:16.582Z,17.20
2018-03-18T04:37:45.058Z,22.97
2018-03-18T04:40:13.277Z,18.73
2018-03-18T04:42:41.814Z,24.90
2018-03-18T04:45:10.298Z,22.13
2018-03-18T04:47:38.775Z,38.33
2018-03-18T04:50:07.049Z,43.50
2018-03-18T04:52:35.418Z,33.70
2018-03-18T04:55:04.021Z,32.63
2018-03-18T04:57:32.393Z,22.80
2018-03-18T05:00:00.877Z,36.43
2018-03-18T05:02:29.454Z,42.03
2018-03-18T05:04:57.828Z,35.67
2018-03-18T05:07:26.240Z,42.87
2018-03-18T05:09:54.586Z,33.20
2018-03-18T05:12:22.852Z,30.33
2018-03-18T05:14:50.758Z,46.77
2018-03-18T05:17:19.108Z,41.73
2018-03-18T05:19:47.480Z,37.20
2018-03-18T05:22:15.752Z,74.13
2018-03-18T05:24:44.236Z,118.80
2018-03-18T05:27:12.609Z,121.47
2018-03-18T05:29:41.197Z,114.17
2018-03-18T05:32:09.680Z,90.23
2018-03-18T05:34:37.957Z,93.70
2018-03-18T05:37:06.437Z,105.53
2018-03-18T05:39:34.570Z,75.83
2018-03-18T05:42:02.989Z,60.00
2018-03-18T05:44:31.455Z,78.53
2018-03-18T05:46:59.949Z,55.33
2018-03-18T05:49:28.200Z,48.90
2018-03-18T05:51:56.644Z,72.03
2018-03-18T05:54:25.084Z,61.80
2018-03-18T05:56:53.640Z,32.73
2018-03-18T05:59:21.940Z,52.80
2018-03-18T06:01:50.016Z,32.57
2018-03-18T06:04:18.378Z,28.53
2018-03-18T06:06:46.756Z,43.20
2018-03-18T06:09:15.146Z,20.03
2018-03-18T06:11:43.625Z,37.10
2018-03-18T06:14:12.001Z,40.47
2018-03-18T06:16:40.981Z,33.97
2018-03-18T06:19:09.182Z,33.33
2018-03-18T06:21:37.762Z,51.63
2018-03-18T06:24:06.065Z,38.57
2018-03-18T06:26:34.435Z,22.20
2018-03-18T06:29:02.784Z,26.60
2018-03-18T06:31:31.278Z,25.17
2018-03-18T06:33:59.636Z,19.63
2018-03-18T06:36:28.330Z,44.53
2018-03-18T06:38:57.626Z,30.00
2018-03-18T06:41:26.026Z,38.60
2018-03-18T06:43:54.199Z,24.87
2018-03-18T06:46:22.386Z,41.73
2018-03-18T06:48:50.690Z,23.93
2018-03-18T06:51:19.854Z,42.97
2018-03-18T06:53:48.206Z,39.00
2018-03-18T06:56:16.690Z,40.13
2018-03-18T06:58:44.957Z,40.40
2018-03-18T07:01:13.498Z,40.43
2018-03-18T07:03:42.026Z,34.20
2018-03-18T07:06:10.481Z,36.20
2018-03-18T07:08:38.980Z,52.27
2018-03-18T07:11:07.366Z,30.90
2018-03-18T07:13:35.841Z,35.87
2018-03-18T07:16:04.094Z,47.73
2018-03-18T07:18:32.499Z,32.43
2018-03-18T07:21:00.974Z,55.23
2018-03-18T07:23:29.248Z,46.10
2018-03-18T07:25:57.940Z,60.70
2018-03-18T07:28:26.335Z,55.17
2018-03-18T07:30:55.698Z,47.27
2018-03-18T07:33:24.087Z,54.93
2018-03-18T07:35:52.464Z,52.87
2018-03-18T07:38:20.834Z,45.20
2018-03-18T07:40:49.328Z,43.63
2018-03-18T07:43:17.606Z,65.50
2018-03-18T07:45:46.193Z,63.23
2018-03-18T07:48:14.552Z,36.37
2018-03-18T07:50:43.048Z,47.53
2018-03-18T07:53:11.230Z,46.83
2018-03-18T07:55:40.014Z,76.43
2018-03-18T07:58:08.275Z,45.73
2018-03-18T08:00:37.179Z,54.10
2018-03-18T08:03:05.639Z,27.50
2018-03-18T08:05:34.030Z,30.97
2018-03-18T08:08:02.409Z,52.63
2018-03-18T08:10:30.962Z,46.43
2018-03-18T08:12:59.368Z,57.10
2018-03-18T08:15:27.698Z,58.53
2018-03-18T08:17:55.922Z,76.27
2018-03-18T08:20:24.187Z,84.30
2018-03-18T08:22:52.574Z,74.23
2018-03-18T08:25:21.050Z,84.93
2018-03-18T08:27:49.547Z,88.77
2018-03-18T08:30:17.904Z,122.03
2018-03-18T08:32:46.085Z,64.67
2018-03-18T08:35:15.264Z,60.87
2018-03-18T08:37:43.677Z,127.90
2018-03-18T08:40:12.041Z,70.37
2018-03-18T08:42:40.402Z,52.03
2018-03-18T08:45:08.792Z,93.97
2018-03-18T08:47:37.601Z,57.70
2018-03-18T08:50:05.964Z,59.07
2018-03-18T08:52:34.124Z,104.67
2018-03-18T08:55:02.130Z,77.03
2018-03-18T08:57:30.465Z,63.93
2018-03-18T08:59:59.163Z,89.50
2018-03-18T09:02:27.332Z,43.43
2018-03-18T09:04:55.805Z,57.43
2018-03-18T09:07:24.200Z,55.53
2018-03-18T09:09:52.560Z,63.93
2018-03-18T09:12:20.853Z,50.07
2018-03-18T09:14:49.271Z,42.53
2018-03-18T09:17:17.709Z,69.03
2018-03-18T09:19:46.208Z,59.17
2018-03-18T09:22:14.519Z,35.43
2018-03-18T09:24:42.946Z,49.37
2018-03-18T09:27:11.126Z,51.73
2018-03-18T09:29:39.437Z,75.83
2018-03-18T09:32:08.291Z,42.67
2018-03-18T09:34:36.483Z,78.80
2018-03-18T09:37:04.614Z,53.33
2018-03-18T09:39:33.109Z,78.83
2018-03-18T09:42:01.502Z,65.33
2018-03-18T09:44:29.868Z,62.33
2018-03-18T09:46:58.151Z,62.70
2018-03-18T09:49:26.726Z,101.40
2018-03-18T09:51:55.414Z,62.93
2018-03-18T09:54:23.793Z,76.53
2018-03-18T09:56:51.969Z,93.43
2018-03-18T09:59:20.346Z,65.00
2018-03-18T10:01:48.514Z,131.17
2018-03-18T10:04:16.730Z,90.03
2018-03-18T10:06:44.962Z,53.30
2018-03-18T10:09:13.221Z,54.27
2018-03-18T10:11:42.952Z,109.73
2018-03-18T10:14:11.218Z,73.97
2018-03-18T10:16:39.504Z,89.70
2018-03-18T10:19:07.982Z,127.23
2018-03-18T10:21:36.006Z,73.73
2018-03-18T10:24:03.925Z,207.37
2018-03-18T10:26:31.969Z,76.47
2018-03-18T10:29:00.556Z,106.20
2018-03-18T10:31:28.846Z,444.20
2018-03-18T10:33:57.080Z,76.00
2018-03-18T10:36:25.588Z,108.30
2018-03-18T10:38:53.875Z,80.10
2018-03-18T10:41:22.057Z,132.43
2018-03-18T10:43:50.514Z,85.53
2018-03-18T10:46:19.054Z,21.80
2018-03-18T10:48:47.448Z,49.53
2018-03-18T10:51:15.958Z,18.90
2018-03-18T10:53:44.026Z,30.53
2018-03-18T10:56:12.304Z,39.77
2018-03-18T10:58:40.611Z,16.10
2018-03-18T11:01:10.569Z,17.07
2018-03-18T11:03:39.717Z,28.40
2018-03-18T11:06:07.893Z,24.23
2018-03-18T11:08:36.360Z,12.73
2018-03-18T11:11:04.723Z,40.80
2018-03-18T11:13:33.008Z,17.67
2018-03-18T11:16:01.286Z,24.40
2018-03-18T11:18:29.757Z,12.93
2018-03-18T11:20:58.257Z,20.40
2018-03-18T11:23:26.700Z,8.50
2018-03-18T11:25:55.220Z,8.50
2018-03-18T11:28:23.351Z,8.03
2018-03-18T11:30:51.856Z,4.53
2018-03-18T11:33:20.240Z,3.00
2018-03-18T11:35:48.722Z,20.70
2018-03-18T11:38:17.205Z,28.13
2018-03-18T11:40:45.368Z,8.13
2018-03-18T11:43:17.537Z,7.97
2018-03-18T11:45:45.663Z,12.30
2018-03-18T11:48:13.893Z,16.07
2018-03-18T11:50:42.572Z,7.77
2018-03-18T11:53:10.726Z,26.43
2018-03-18T11:55:39.325Z,7.63
2018-03-18T11:58:07.846Z,12.53
2018-03-18T12:00:36.087Z,81.73
2018-03-18T12:03:04.430Z,55.70
2018-03-18T12:05:32.842Z,82.00
2018-03-18T12:08:00.891Z,58.13
2018-03-18T12:10:29.205Z,54.33
2018-03-18T12:12:57.565Z,40.70
2018-03-18T12:15:25.487Z,34.40
2018-03-18T12:17:53.711Z,51.23
2018-03-18T12:20:22.289Z,40.93
2018-03-18T12:22:51.076Z,48.40
2018-03-18T12:25:19.354Z,91.13
2018-03-18T12:27:48.032Z,48.40
2018-03-18T12:30:16.426Z,62.93
2018-03-18T12:32:44.685Z,39.73
2018-03-18T12:35:13.072Z,24.87
2018-03-18T12:37:41.449Z,31.53
2018-03-18T12:43:25.700Z,38.03
2018-03-18T12:45:54.386Z,47.77
2018-03-18T12:48:22.777Z,59.17
2018-03-18T12:50:51.771Z,42.80
2018-03-18T12:53:20.353Z,31.83
2018-03-18T12:55:48.538Z,43.70
2018-03-18T12:58:16.500Z,32.90
2018-03-18T13:00:44.447Z,41.30
2018-03-18T13:03:12.681Z,39.63
2018-03-18T13:05:40.632Z,29.53
2018-03-18T13:08:08.633Z,37.97
2018-03-18T13:10:36.545Z,28.77
2018-03-18T13:13:04.559Z,14.90
2018-03-18T13:15:32.404Z,19.20
2018-03-18T13:18:00.389Z,33.27
2018-03-18T13:20:28.405Z,24.30
2018-03-18T13:22:56.802Z,26.13
2018-03-18T13:25:24.795Z,18.60
2018-03-18T13:27:52.708Z,25.60
2018-03-18T13:30:20.750Z,11.30
2018-03-18T13:32:48.592Z,11.27
2018-03-18T13:35:16.546Z,18.50
2018-03-18T13:37:44.553Z,39.43
2018-03-18T13:40:12.530Z,41.53
2018-03-18T13:42:40.572Z,15.60
2018-03-18T13:45:08.548Z,16.77
2018-03-18T13:47:36.554Z,16.93
2018-03-18T13:50:04.631Z,17.40
2018-03-18T13:52:32.666Z,16.13
2018-03-18T13:55:00.574Z,10.40
2018-03-18T13:57:28.544Z,12.20
2018-03-18T13:59:56.579Z,20.53
2018-03-18T14:02:24.578Z,17.67
2018-03-18T14:04:52.791Z,11.27
2018-03-18T14:07:20.770Z,33.23
2018-03-18T14:09:48.782Z,17.90
2018-03-18T14:12:16.748Z,20.07
2018-03-18T14:14:44.716Z,26.90
2018-03-18T14:17:12.701Z,13.77
2018-03-18T14:19:40.664Z,12.50
2018-03-18T14:22:08.688Z,12.23
2018-03-18T14:24:36.823Z,16.37
2018-03-18T14:27:04.781Z,14.53
2018-03-18T14:29:32.669Z,22.53
2018-03-18T14:32:00.570Z,33.77
2018-03-18T14:34:28.538Z,51.73
2018-03-18T14:36:56.482Z,42.10
2018-03-18T14:39:24.431Z,36.20
2018-03-18T14:41:52.398Z,37.23
2018-03-18T14:44:20.325Z,36.07
2018-03-18T14:46:48.336Z,32.07
2018-03-18T14:49:16.364Z,29.70
2018-03-18T14:51:44.330Z,30.87
2018-03-18T14:54:12.386Z,27.77
2018-03-18T14:56:40.326Z,11.63
2018-03-18T14:59:08.269Z,21.30
2018-03-18T15:01:36.345Z,41.83
2018-03-18T15:04:04.398Z,51.23
2018-03-18T15:06:32.490Z,50.57
2018-03-18T15:09:00.510Z,32.27
2018-03-18T15:11:28.424Z,34.17
2018-03-18T15:13:56.482Z,21.57
2018-03-18T15:16:24.521Z,42.50
2018-03-18T15:18:52.499Z,45.57
2018-03-18T15:21:20.454Z,33.43
2018-03-18T15:23:48.340Z,38.47
2018-03-18T15:26:16.349Z,39.87
2018-03-18T15:28:44.356Z,36.00
2018-03-18T15:31:12.311Z,53.20
2018-03-18T15:33:40.252Z,76.80
2018-03-18T15:36:08.224Z,331.17
2018-03-18T15:38:36.285Z,21.53
2018-03-18T15:41:04.326Z,37.63
2018-03-18T15:43:32.212Z,36.00
2018-03-18T15:46:00.211Z,40.33
2018-03-18T15:48:28.154Z,51.60
2018-03-18T15:50:56.091Z,69.60
2018-03-18T15:53:24.050Z,73.77
2018-03-18T15:55:51.962Z,58.47
2018-03-18T15:58:19.958Z,56.77
2018-03-18T16:00:47.958Z,81.60
2018-03-18T16:03:15.920Z,140.07
2018-03-18T16:05:43.978Z,105.37
2018-03-18T16:08:12.109Z,109.13
2018-03-18T16:10:40.097Z,104.50
2018-03-18T16:13:08.082Z,144.50
2018-03-18T16:15:36.002Z,149.20
2018-03-18T16:18:04.484Z,116.90
2018-03-18T16:20:33.180Z,149.83
2018-03-18T16:23:01.539Z,170.07
2018-03-18T16:25:29.829Z,125.23
2018-03-18T16:27:57.761Z,109.23
2018-03-18T16:30:37.492Z,93.90
2018-03-18T16:33:05.535Z,128.83
2018-03-18T16:35:33.896Z,119.20
2018-03-18T16:38:03.209Z,124.33
2018-03-18T16:40:31.773Z,78.67
2018-03-18T16:43:00.070Z,255.73
2018-03-18T16:45:28.222Z,135.50
2018-03-18T16:47:56.214Z,125.80
2018-03-18T16:50:24.281Z,136.83
2018-03-18T16:52:52.332Z,139.50
2018-03-18T16:55:20.294Z,91.93
2018-03-18T16:57:48.279Z,95.90
2018-03-18T17:00:16.236Z,123.33
2018-03-18T17:02:44.253Z,127.00
2018-03-18T17:05:12.209Z,104.73
2018-03-18T17:07:40.175Z,150.23
2018-03-18T17:10:08.417Z,142.50
2018-03-18T17:12:36.400Z,96.97
2018-03-18T17:15:04.770Z,97.77
2018-03-18T17:17:33.150Z,135.00
2018-03-18T17:20:01.312Z,129.20
2018-03-18T17:22:29.803Z,166.83
2018-03-18T17:24:58.138Z,210.17
2018-03-18T17:27:26.249Z,155.03
2018-03-18T17:29:54.422Z,156.03
2018-03-18T17:32:22.698Z,155.97
2018-03-18T17:34:50.978Z,194.43
2018-03-18T17:37:19.653Z,181.70
2018-03-18T17:39:47.646Z,132.47
2018-03-18T17:42:15.602Z,111.23
2018-03-18T17:44:55.728Z,105.87
2018-03-18T17:47:36.960Z,81.80
2018-03-18T17:50:17.282Z,173.57
2018-03-18T17:52:57.931Z,176.80
2018-03-18T17:55:35.133Z,158.20
2018-03-18T17:58:03.129Z,119.43
2018-03-18T18:00:31.477Z,141.23
2018-03-18T18:02:59.667Z,169.13
2018-03-18T18:05:28.861Z,119.17
2018-03-18T18:07:56.805Z,123.93
2018-03-18T18:10:25.017Z,132.67
2018-03-18T18:12:52.957Z,152.80
2018-03-18T18:15:20.964Z,193.10
2018-03-18T18:17:48.933Z,173.03
2018-03-18T18:20:16.930Z,201.50
2018-03-18T18:22:44.870Z,217.33
2018-03-18T18:25:12.928Z,186.43
2018-03-18T18:27:40.876Z,119.00
2018-03-18T18:30:08.906Z,192.70
2018-03-18T18:32:36.829Z,137.30
2018-03-18T18:35:04.878Z,129.70
2018-03-18T18:37:32.859Z,146.60
2018-03-18T18:40:00.954Z,141.20
2018-03-18T18:42:29.017Z,136.20
2018-03-18T18:44:57.057Z,247.47
2018-03-18T18:47:25.052Z,162.87
2018-03-18T18:49:53.030Z,149.13
2018-03-18T18:52:20.998Z,147.07
2018-03-18T18:54:49.000Z,129.90
2018-03-18T18:57:16.993Z,127.97
2018-03-18T18:59:44.983Z,195.90
2018-03-18T19:02:12.996Z,211.43
2018-03-18T19:04:41.010Z,174.03
2018-03-18T19:07:09.065Z,190.07
2018-03-18T19:09:37.137Z,231.47
2018-03-18T19:12:05.343Z,177.30
2018-03-18T19:14:33.311Z,141.70
2018-03-18T19:17:01.343Z,198.00
2018-03-18T19:19:29.331Z,124.63
2018-03-18T19:21:57.322Z,111.20
2018-03-18T19:24:25.295Z,101.50
2018-03-18T19:26:53.288Z,105.33
2018-03-18T19:29:21.214Z,97.97
2018-03-18T19:31:49.164Z,81.23
2018-03-18T19:34:17.130Z,102.53
2018-03-18T19:36:45.155Z,76.13
2018-03-18T19:39:13.303Z,99.43
2018-03-18T19:41:41.410Z,99.83
2018-03-18T19:44:09.417Z,77.03
2018-03-18T19:46:37.460Z,85.00
2018-03-18T19:49:05.546Z,100.97
2018-03-18T19:51:33.623Z,90.40
2018-03-18T19:54:01.607Z,76.27
2018-03-18T19:56:29.638Z,54.47
2018-03-18T19:58:57.607Z,70.57
2018-03-18T20:01:25.675Z,82.50
2018-03-18T20:07:24.562Z,71.20
2018-03-18T20:09:52.537Z,65.80
2018-03-18T20:12:20.682Z,65.80
2018-03-18T20:14:48.657Z,57.37
2018-03-18T20:17:16.675Z,72.87
2018-03-18T20:19:44.692Z,52.77
2018-03-18T20:22:12.735Z,132.83
2018-03-18T20:24:41.738Z,89.37
2018-03-18T20:27:09.746Z,83.30
2018-03-18T20:29:37.668Z,59.70
2018-03-18T20:32:05.615Z,62.40
2018-03-18T20:34:33.502Z,67.63
2018-03-18T20:37:01.509Z,63.83
2018-03-18T20:39:29.546Z,74.20
2018-03-18T20:41:57.596Z,73.27
2018-03-18T20:44:25.651Z,77.47
2018-03-18T20:46:53.654Z,71.40
2018-03-18T20:49:21.642Z,77.40
2018-03-18T20:51:49.615Z,96.53
2018-03-18T20:54:17.602Z,55.03
2018-03-18T20:56:45.613Z,52.37
2018-03-18T20:59:13.606Z,60.90
2018-03-18T21:01:41.641Z,59.03
2018-03-18T21:04:09.657Z,71.83
2018-03-18T21:06:37.617Z,63.77
2018-03-18T21:09:05.662Z,80.13
2018-03-18T21:11:33.547Z,75.57
2018-03-18T21:14:01.849Z,62.83
2018-03-18T21:16:29.831Z,73.27
2018-03-18T21:18:57.823Z,113.20
2018-03-18T21:21:25.755Z,87.30
2018-03-18T21:23:53.811Z,94.60
2018-03-18T21:26:22.905Z,80.80
2018-03-18T21:28:50.838Z,97.77
2018-03-18T21:31:18.840Z,81.97
2018-03-18T21:33:46.777Z,93.33
2018-03-18T21:36:14.623Z,68.87
2018-03-18T21:38:42.546Z,88.30
2018-03-18T21:41:10.516Z,70.20
2018-03-18T21:43:38.453Z,71.97
2018-03-18T21:46:06.442Z,70.27
2018-03-18T21:48:34.410Z,72.67
2018-03-18T21:51:02.462Z,87.03
2018-03-18T21:53:30.394Z,80.20
2018-03-18T21:55:58.412Z,65.40
2018-03-18T21:58:26.458Z,95.17
2018-03-18T22:00:54.450Z,149.63
2018-03-18T22:03:22.466Z,129.30
2018-03-18T22:05:50.442Z,162.10
2018-03-18T22:08:18.444Z,110.20
2018-03-18T22:10:46.417Z,89.83
2018-03-18T22:13:14.378Z,97.40
2018-03-18T22:15:42.578Z,77.77
2018-03-18T22:18:10.560Z,62.60
2018-03-18T22:20:38.493Z,65.23
2018-03-18T22:23:06.405Z,76.23
2018-03-18T22:25:34.429Z,62.83
2018-03-18T22:28:02.418Z,67.40
2018-03-18T22:30:30.404Z,69.07
2018-03-18T22:32:58.411Z,66.10
2018-03-18T22:35:26.458Z,70.20
2018-03-18T22:37:54.510Z,68.90
2018-03-18T22:40:22.543Z,76.30
2018-03-18T22:42:50.567Z,61.50
2018-03-18T22:45:18.557Z,50.37
2018-03-18T22:47:46.526Z,41.73
2018-03-18T22:50:14.704Z,36.80
2018-03-18T22:52:42.841Z,31.80
2018-03-18T22:55:10.841Z,42.33
2018-03-18T22:57:38.873Z,32.23
2018-03-18T23:00:07.017Z,37.63
2018-03-18T23:02:35.100Z,39.60
2018-03-18T23:05:03.132Z,35.73
2018-03-18T23:07:31.073Z,34.93
2018-03-18T23:09:59.150Z,41.57
2018-03-18T23:12:27.069Z,45.47
2018-03-18T23:14:55.001Z,44.80
2018-03-18T23:17:22.993Z,44.53
2018-03-18T23:19:51.011Z,35.00
2018-03-18T23:22:18.952Z,36.97
2018-03-18T23:24:46.889Z,49.57
2018-03-18T23:27:14.837Z,43.93
2018-03-18T23:29:42.865Z,40.20
2018-03-18T23:32:10.891Z,41.03
2018-03-18T23:34:38.924Z,42.03
2018-03-18T23:37:06.874Z,44.53
2018-03-18T23:39:34.886Z,72.87
2018-03-18T23:42:03.022Z,73.50
2018-03-18T23:44:30.983Z,71.13
2018-03-18T23:46:58.913Z,57.00
2018-03-18T23:49:26.856Z,53.33
2018-03-18T23:51:54.864Z,40.80
2018-03-18T23:54:22.860Z,48.50
2018-03-18T23:56:50.842Z,44.90
2018-03-18T23:59:18.814Z,39.83
